createdAt,value
2022-08-20T00:02:56.572Z,16.94
2022-08-20T00:08:01.753Z,16.98
2022-08-20T00:13:05.464Z,17.07
2022-08-20T00:18:08.974Z,17.03
2022-08-20T00:23:17.507Z,16.96
2022-08-20T00:28:20.553Z,17.04
2022-08-20T00:33:25.060Z,17.08
2022-08-20T00:38:29.189Z,17.13
2022-08-20T00:43:37.950Z,17.08
2022-08-20T00:48:42.594Z,17.10
2022-08-20T00:53:47.129Z,16.99
2022-08-20T00:58:50.934Z,16.93
2022-08-20T01:03:54.917Z,16.98
2022-08-20T01:09:02.227Z,16.94
2022-08-20T01:14:27.775Z,16.96
2022-08-20T01:19:35.026Z,16.93
2022-08-20T01:24:43.769Z,16.87
2022-08-20T01:29:48.325Z,16.82
2022-08-20T01:34:51.538Z,16.78
2022-08-20T01:39:55.090Z,16.83
2022-08-20T01:44:59.346Z,16.85
2022-08-20T01:50:16.354Z,16.86
2022-08-20T01:55:19.628Z,16.88
2022-08-20T02:00:25.116Z,16.96
2022-08-20T02:05:30.468Z,16.91
2022-08-20T02:10:33.598Z,16.87
2022-08-20T02:15:39.791Z,16.84
2022-08-20T02:20:47.054Z,16.78
2022-08-20T02:25:50.179Z,16.76
2022-08-20T02:30:56.375Z,16.77
2022-08-20T02:35:59.198Z,16.78
2022-08-20T02:41:02.386Z,16.85
2022-08-20T02:46:08.110Z,16.86
2022-08-20T02:51:10.927Z,16.87
2022-08-20T02:56:14.057Z,16.90
2022-08-20T03:01:19.036Z,16.87
2022-08-20T03:06:22.265Z,16.90
2022-08-20T03:11:25.146Z,16.92
2022-08-20T03:16:29.302Z,16.96
2022-08-20T03:21:32.422Z,16.95
2022-08-20T03:26:35.246Z,16.86
2022-08-20T03:31:39.660Z,16.91
2022-08-20T03:36:42.757Z,16.89
2022-08-20T03:41:45.570Z,16.75
2022-08-20T03:46:49.809Z,16.62
2022-08-20T03:51:57.405Z,16.64
2022-08-20T03:57:02.944Z,16.71
2022-08-20T04:02:16.798Z,16.66
2022-08-20T04:07:25.835Z,16.60
2022-08-20T04:12:29.124Z,16.56
2022-08-20T04:17:33.490Z,16.54
2022-08-20T04:22:36.865Z,16.51
2022-08-20T04:27:42.284Z,16.55
2022-08-20T04:32:46.610Z,16.61
2022-08-20T04:37:49.629Z,16.59
2022-08-20T04:42:53.298Z,16.66
2022-08-20T04:47:58.625Z,16.58
2022-08-20T04:53:01.442Z,16.60
2022-08-20T04:58:05.579Z,16.63
2022-08-20T05:03:09.722Z,16.70
2022-08-20T05:08:19.816Z,16.81
2022-08-20T05:13:27.281Z,16.95
2022-08-20T05:18:33.583Z,17.01
2022-08-20T05:23:39.661Z,17.04
2022-08-20T05:28:51.184Z,16.98
2022-08-20T05:34:02.980Z,16.93
2022-08-20T05:39:05.553Z,16.96
2022-08-20T05:44:13.197Z,16.97
2022-08-20T05:49:19.997Z,16.92
2022-08-20T05:54:23.934Z,17.00
2022-08-20T05:59:27.608Z,17.13
2022-08-20T06:04:32.143Z,17.14
2022-08-20T06:09:36.267Z,17.19
2022-08-20T06:14:39.287Z,17.19
2022-08-20T06:19:45.293Z,17.17
2022-08-20T06:24:49.668Z,17.22
2022-08-20T06:29:53.307Z,17.20
2022-08-20T06:34:57.463Z,17.21
2022-08-20T06:40:02.862Z,17.31
2022-08-20T06:45:06.393Z,17.38
2022-08-20T06:50:13.472Z,17.30
2022-08-20T06:55:17.477Z,17.34
2022-08-20T07:00:20.856Z,17.38
2022-08-20T07:05:25.036Z,17.38
2022-08-20T07:10:30.207Z,17.36
2022-08-20T07:15:33.587Z,17.45
2022-08-20T07:20:40.438Z,17.59
2022-08-20T07:25:44.781Z,17.61
2022-08-20T07:31:13.323Z,17.78
2022-08-20T07:36:19.573Z,18.01
2022-08-20T07:41:22.384Z,18.36
2022-08-20T07:46:25.181Z,18.55
2022-08-20T07:51:35.831Z,18.69
2022-08-20T07:56:38.603Z,18.87
2022-08-20T08:01:42.278Z,19.15
2022-08-20T08:06:46.455Z,19.48
2022-08-20T08:11:51.769Z,19.68
2022-08-20T08:16:57.233Z,19.63
2022-08-20T08:22:01.515Z,19.56
2022-08-20T08:27:04.718Z,19.50
2022-08-20T08:32:08.372Z,19.49
2022-08-20T08:37:12.777Z,19.21
2022-08-20T08:42:24.867Z,19.00
2022-08-20T08:47:32.106Z,18.99
2022-08-20T08:52:41.133Z,19.10
2022-08-20T08:57:43.902Z,19.30
2022-08-20T09:02:56.875Z,19.15
2022-08-20T09:08:04.406Z,19.05
2022-08-20T09:13:07.669Z,19.21
2022-08-20T09:18:10.433Z,19.28
2022-08-20T09:23:14.581Z,19.34
2022-08-20T09:28:17.769Z,19.46
2022-08-20T09:33:20.874Z,19.75
2022-08-20T09:38:25.694Z,20.00
2022-08-20T09:43:28.528Z,20.21
2022-08-20T09:48:32.274Z,20.15
2022-08-20T09:53:36.793Z,20.37
2022-08-20T09:58:48.323Z,20.51
2022-08-20T10:03:51.771Z,20.86
2022-08-20T10:08:55.913Z,21.16
2022-08-20T10:13:58.497Z,21.27
2022-08-20T10:19:01.662Z,21.51
2022-08-20T10:24:06.218Z,21.78
2022-08-20T10:29:09.009Z,21.50
2022-08-20T10:34:11.838Z,21.33
2022-08-20T10:39:16.545Z,21.28
2022-08-20T10:44:19.320Z,21.40
2022-08-20T10:49:22.174Z,21.65
2022-08-20T10:54:26.318Z,21.87
2022-08-20T10:59:28.904Z,22.19
2022-08-20T11:04:31.701Z,22.45
2022-08-20T11:09:35.839Z,22.70
2022-08-20T11:14:38.442Z,22.86
2022-08-20T11:19:42.613Z,23.03
2022-08-20T11:24:47.226Z,23.06
2022-08-20T11:29:50.046Z,22.73
2022-08-20T11:34:53.389Z,22.45
2022-08-20T11:39:57.599Z,22.62
2022-08-20T11:45:00.409Z,22.95
2022-08-20T11:50:06.891Z,23.24
2022-08-20T11:55:14.059Z,23.53
2022-08-20T12:00:22.084Z,23.84
2022-08-20T12:05:36.685Z,24.01
2022-08-20T12:10:41.066Z,23.89
2022-08-20T12:15:43.984Z,24.12
2022-08-20T12:20:46.783Z,24.21
2022-08-20T12:25:55.203Z,24.32
2022-08-20T12:31:02.123Z,24.29
2022-08-20T12:36:06.019Z,24.18
2022-08-20T12:41:09.957Z,24.04
2022-08-20T12:46:12.741Z,23.63
2022-08-20T12:51:15.529Z,23.29
2022-08-20T12:56:19.717Z,23.43
2022-08-20T13:01:22.493Z,23.64
2022-08-20T13:06:25.362Z,23.66
2022-08-20T13:11:29.587Z,23.65
2022-08-20T13:16:32.803Z,23.94
2022-08-20T13:21:36.654Z,24.08
2022-08-20T13:26:40.586Z,24.13
2022-08-20T13:31:43.512Z,24.19
2022-08-20T13:36:46.294Z,24.59
2022-08-20T13:41:50.987Z,24.61
2022-08-20T13:46:54.111Z,24.75
2022-08-20T13:51:56.873Z,24.63
2022-08-20T13:57:07.943Z,24.88
2022-08-20T14:02:12.381Z,25.02
2022-08-20T14:07:17.294Z,24.92
2022-08-20T14:12:23.081Z,24.81
2022-08-20T14:17:28.184Z,24.85
2022-08-20T14:22:31.053Z,25.25
2022-08-20T14:27:35.253Z,25.79
2022-08-20T14:32:38.087Z,25.76
2022-08-20T14:37:43.650Z,25.27
2022-08-20T14:42:51.601Z,24.48
2022-08-20T14:47:57.053Z,24.09
2022-08-20T14:53:01.016Z,23.99
2022-08-20T14:58:08.082Z,23.96
2022-08-20T15:03:11.084Z,24.01
2022-08-20T15:08:13.912Z,24.19
2022-08-20T15:13:18.166Z,24.81
2022-08-20T15:18:24.996Z,26.12
2022-08-20T15:23:27.792Z,27.82
2022-08-20T15:28:31.954Z,28.26
2022-08-20T15:33:34.730Z,29.02
2022-08-20T15:38:38.066Z,29.29
2022-08-20T15:43:42.577Z,28.68
2022-08-20T15:48:48.485Z,28.26
2022-08-20T15:54:00.008Z,28.91
2022-08-20T15:59:14.787Z,28.31
2022-08-20T16:04:33.525Z,27.64
2022-08-20T16:09:50.048Z,27.45
2022-08-20T16:15:00.056Z,28.04
2022-08-20T16:20:08.578Z,28.10
2022-08-20T16:25:12.185Z,27.46
2022-08-20T16:30:21.990Z,26.83
2022-08-20T16:35:30.394Z,26.70
2022-08-20T16:40:39.459Z,26.49
2022-08-20T16:45:51.051Z,26.16
2022-08-20T16:50:58.618Z,26.00
2022-08-20T16:56:01.409Z,26.79
2022-08-20T17:01:14.400Z,27.59
2022-08-20T17:06:29.449Z,28.05
2022-08-20T17:11:33.204Z,28.29
2022-08-20T17:16:40.066Z,28.35
2022-08-20T17:21:44.301Z,27.80
2022-08-20T17:26:50.108Z,26.98
2022-08-20T17:31:57.537Z,26.17
2022-08-20T17:37:11.926Z,25.40
2022-08-20T17:42:19.424Z,24.71
2022-08-20T17:47:30.250Z,24.30
2022-08-20T17:52:39.549Z,23.94
2022-08-20T17:57:46.381Z,23.64
2022-08-20T18:02:52.172Z,23.30
2022-08-20T18:08:08.480Z,22.90
2022-08-20T18:13:18.342Z,22.70
2022-08-20T18:18:31.469Z,22.37
2022-08-20T18:23:41.239Z,22.11
2022-08-20T18:28:48.344Z,21.83
2022-08-20T18:33:52.656Z,21.62
2022-08-20T18:39:00.059Z,21.48
2022-08-20T18:44:06.326Z,21.34
2022-08-20T18:49:13.858Z,21.30
2022-08-20T18:54:24.859Z,21.05
2022-08-20T18:59:28.005Z,20.91
2022-08-20T19:04:35.034Z,20.81
2022-08-20T19:09:53.852Z,20.78
2022-08-20T19:15:02.456Z,20.45
2022-08-20T19:20:14.552Z,20.25
2022-08-20T19:25:30.155Z,19.92
2022-08-20T19:30:36.846Z,19.70
2022-08-20T19:35:41.362Z,19.68
2022-08-20T19:40:45.982Z,19.63
2022-08-20T19:45:50.156Z,19.36
2022-08-20T19:51:06.393Z,19.31
2022-08-20T19:56:13.710Z,19.31
2022-08-20T20:01:19.426Z,19.23
2022-08-20T20:06:25.633Z,18.95
2022-08-20T20:11:33.960Z,18.87
2022-08-20T20:16:38.190Z,18.79
2022-08-20T20:21:45.014Z,18.76
2022-08-20T20:26:49.681Z,18.56
2022-08-20T20:31:54.577Z,18.40
2022-08-20T20:37:10.036Z,18.24
2022-08-20T20:42:28.414Z,18.09
2022-08-20T20:47:35.945Z,17.94
2022-08-20T20:52:56.813Z,17.90
2022-08-20T20:58:00.732Z,17.86
2022-08-20T21:03:05.939Z,17.76
2022-08-20T21:08:12.059Z,17.74
2022-08-20T21:13:16.410Z,17.79
2022-08-20T21:18:22.922Z,17.75
2022-08-20T21:23:40.148Z,17.71
2022-08-20T21:28:44.770Z,17.54
2022-08-20T21:33:47.548Z,17.48
2022-08-20T21:38:51.799Z,17.40
2022-08-20T21:43:54.649Z,17.27
2022-08-20T21:48:57.910Z,17.19
2022-08-20T21:54:03.119Z,17.17
2022-08-20T21:59:08.238Z,16.97
2022-08-20T22:04:11.013Z,16.85
2022-08-20T22:09:16.199Z,16.81
2022-08-20T22:14:19.166Z,16.74
2022-08-20T22:19:22.348Z,16.69
2022-08-20T22:24:28.617Z,16.68
2022-08-20T22:29:31.433Z,16.69
2022-08-20T22:34:36.553Z,16.60
2022-08-20T22:39:40.744Z,16.61
2022-08-20T22:44:43.530Z,16.66
2022-08-20T22:49:46.366Z,16.63
2022-08-20T22:54:50.870Z,16.43
2022-08-20T22:59:53.992Z,16.42
2022-08-20T23:04:57.427Z,16.29
2022-08-20T23:10:01.574Z,16.13
2022-08-20T23:15:04.801Z,15.97
2022-08-20T23:20:08.894Z,15.93
2022-08-20T23:25:14.940Z,15.92
2022-08-20T23:30:20.940Z,15.79
2022-08-20T23:35:23.962Z,15.69
2022-08-20T23:40:34.174Z,15.63
2022-08-20T23:45:38.792Z,15.68
2022-08-20T23:50:42.816Z,15.58
2022-08-20T23:55:47.015Z,15.55
